Time,TemperatureF,DewpointF,PressureIn,WindDirection,WindDirectionDegrees,WindSpeedMPH,WindSpeedGustMPH,Humidity,HourlyPrecipIn,Conditions,Clouds,dailyrainin,SolarRadiationWatts/m^2,SoftwareType,DateUTC
2013-05-05 00:01:00,51.0,26.0,-100.00,NNE,21,2.0,10.0,38,0.00,,,0.00,0.000000,,2013-05-05 07:01:00,
2013-05-05 00:11:00,51.0,26.0,-100.00,NNE,21,2.0,10.0,38,0.00,,,0.00,0.000000,,2013-05-05 07:11:00,
2013-05-05 00:21:00,51.0,26.0,-100.00,NNE,21,2.0,10.0,38,0.00,,,0.00,0.000000,,2013-05-05 07:21:00,
2013-05-05 00:31:00,51.0,28.0,-100.00,NNE,16,4.0,9.0,40,0.00,,,0.00,0.000000,,2013-05-05 07:31:00,
2013-05-05 00:52:00,51.0,28.0,-100.00,NNE,16,4.0,9.0,40,0.00,,,0.00,0.000000,,2013-05-05 07:52:00,
2013-05-05 01:02:00,51.0,28.0,-100.00,NNE,16,4.0,9.0,40,0.00,,,0.00,0.000000,,2013-05-05 08:02:00,
2013-05-05 01:11:00,51.0,28.0,-100.00,NNE,16,4.0,9.0,40,0.00,,,0.00,0.000000,,2013-05-05 08:11:00,
2013-05-05 01:21:00,51.0,28.0,-100.00,NNE,16,4.0,9.0,40,0.00,,,0.00,0.000000,,2013-05-05 08:21:00,
2013-05-05 01:31:00,50.0,28.0,-100.00,NNE,24,3.0,7.0,42,0.00,,,0.00,0.000000,,2013-05-05 08:31:00,
2013-05-05 01:53:00,50.0,28.0,-100.00,NNE,24,3.0,7.0,42,0.00,,,0.00,0.000000,,2013-05-05 08:53:00,
2013-05-05 02:01:00,50.0,28.0,-100.00,NNE,24,3.0,7.0,42,0.00,,,0.00,0.000000,,2013-05-05 09:01:00,
2013-05-05 02:11:00,50.0,28.0,-100.00,NNE,24,3.0,7.0,42,0.00,,,0.00,0.000000,,2013-05-05 09:11:00,
2013-05-05 02:21:00,50.0,28.0,-100.00,NNE,24,3.0,7.0,42,0.00,,,0.00,0.000000,,2013-05-05 09:21:00,
2013-05-05 02:31:00,49.0,27.0,-100.00,NNE,27,4.0,8.0,43,0.00,,,0.00,0.000000,,2013-05-05 09:31:00,
2013-05-05 02:52:00,49.0,27.0,-100.00,NNE,27,4.0,8.0,43,0.00,,,0.00,0.000000,,2013-05-05 09:52:00,
2013-05-05 03:02:00,49.0,27.0,-100.00,NNE,27,4.0,8.0,43,0.00,,,0.00,0.000000,,2013-05-05 10:02:00,
2013-05-05 03:12:00,49.0,27.0,-100.00,NNE,27,4.0,8.0,43,0.00,,,0.00,0.000000,,2013-05-05 10:12:00,
2013-05-05 03:22:00,49.0,27.0,-100.00,NNE,27,4.0,8.0,43,0.00,,,0.00,0.000000,,2013-05-05 10:22:00,
2013-05-05 03:31:00,48.0,27.0,-100.00,NNE,26,3.0,8.0,44,0.00,,,0.00,0.000000,,2013-05-05 10:31:00,
2013-05-05 03:53:00,48.0,27.0,-100.00,NNE,26,3.0,8.0,44,0.00,,,0.00,0.000000,,2013-05-05 10:53:00,
2013-05-05 04:01:00,48.0,27.0,-100.00,NNE,26,3.0,8.0,44,0.00,,,0.00,0.000000,,2013-05-05 11:01:00,
2013-05-05 04:11:00,48.0,27.0,-100.00,NNE,26,3.0,8.0,44,0.00,,,0.00,0.000000,,2013-05-05 11:11:00,
2013-05-05 04:21:00,48.0,27.0,-100.00,NNE,26,3.0,8.0,44,0.00,,,0.00,0.000000,,2013-05-05 11:21:00,
2013-05-05 04:31:00,47.0,28.0,-100.00,NNE,26,4.0,5.0,48,0.00,,,0.00,0.000000,,2013-05-05 11:31:00,
2013-05-05 04:52:00,47.0,28.0,-100.00,NNE,26,4.0,5.0,48,0.00,,,0.00,0.000000,,2013-05-05 11:52:00,
2013-05-05 05:01:00,47.0,28.0,-100.00,NNE,26,4.0,5.0,48,0.00,,,0.00,0.000000,,2013-05-05 12:01:00,
2013-05-05 05:11:00,47.0,28.0,-100.00,NNE,26,4.0,5.0,48,0.00,,,0.00,0.000000,,2013-05-05 12:11:00,
2013-05-05 05:21:00,47.0,28.0,-100.00,NNE,26,4.0,5.0,48,0.00,,,0.00,0.000000,,2013-05-05 12:21:00,
2013-05-05 05:31:00,46.0,29.0,-100.00,NNE,18,3.0,7.0,51,0.00,,,0.00,0.000000,,2013-05-05 12:31:00,
2013-05-05 05:52:00,46.0,29.0,-100.00,NNE,18,3.0,7.0,51,0.00,,,0.00,0.000000,,2013-05-05 12:52:00,
2013-05-05 06:01:00,46.0,29.0,-100.00,NNE,18,3.0,7.0,51,0.00,,,0.00,0.000000,,2013-05-05 13:01:00,
2013-05-05 06:11:00,46.0,29.0,-100.00,NNE,18,3.0,7.0,51,0.00,,,0.00,0.000000,,2013-05-05 13:11:00,
2013-05-05 06:21:00,46.0,29.0,-100.00,NNE,18,3.0,7.0,51,0.00,,,0.00,0.000000,,2013-05-05 13:21:00,
2013-05-05 06:31:00,45.0,30.0,-100.00,North,5,2.0,8.0,56,0.00,,,0.00,7.000000,,2013-05-05 13:31:00,
2013-05-05 06:52:00,45.0,30.0,-100.00,North,5,2.0,8.0,56,0.00,,,0.00,7.000000,,2013-05-05 13:52:00,
2013-05-05 07:01:00,45.0,30.0,-100.00,North,5,2.0,8.0,56,0.00,,,0.00,7.000000,,2013-05-05 14:01:00,
2013-05-05 07:11:00,45.0,30.0,-100.00,North,5,2.0,8.0,56,0.00,,,0.00,7.000000,,2013-05-05 14:11:00,
2013-05-05 07:21:00,45.0,30.0,-100.00,North,5,2.0,8.0,56,0.00,,,0.00,7.000000,,2013-05-05 14:21:00,
2013-05-05 07:31:00,52.0,34.0,-100.00,North,359,4.0,9.0,50,0.00,,,0.00,151.000000,,2013-05-05 14:31:00,
2013-05-05 07:52:00,52.0,34.0,-100.00,North,359,4.0,9.0,50,0.00,,,0.00,151.000000,,2013-05-05 14:52:00,
2013-05-05 08:01:00,52.0,34.0,-100.00,North,359,4.0,9.0,50,0.00,,,0.00,151.000000,,2013-05-05 15:01:00,
2013-05-05 08:11:00,52.0,34.0,-100.00,North,359,4.0,9.0,50,0.00,,,0.00,151.000000,,2013-05-05 15:11:00,
2013-05-05 08:21:00,52.0,34.0,-100.00,North,359,4.0,9.0,50,0.00,,,0.00,151.000000,,2013-05-05 15:21:00,
2013-05-05 08:31:00,57.0,35.0,-100.00,NNE,19,3.0,11.0,43,0.00,,,0.00,357.000000,,2013-05-05 15:31:00,
2013-05-05 08:53:00,57.0,35.0,-100.00,NNE,19,3.0,11.0,43,0.00,,,0.00,357.000000,,2013-05-05 15:53:00,
2013-05-05 09:03:00,57.0,35.0,-100.00,NNE,19,3.0,11.0,43,0.00,,,0.00,357.000000,,2013-05-05 16:03:00,
2013-05-05 09:12:00,57.0,35.0,-100.00,NNE,19,3.0,11.0,43,0.00,,,0.00,357.000000,,2013-05-05 16:12:00,
2013-05-05 09:22:00,57.0,35.0,-100.00,NNE,19,3.0,11.0,43,0.00,,,0.00,357.000000,,2013-05-05 16:22:00,
2013-05-05 09:31:00,60.0,34.0,-100.00,NNE,15,5.0,16.0,38,0.00,,,0.00,548.000000,,2013-05-05 16:31:00,
2013-05-05 09:53:00,60.0,34.0,-100.00,NNE,15,5.0,16.0,38,0.00,,,0.00,548.000000,,2013-05-05 16:53:00,
2013-05-05 10:02:00,60.0,34.0,-100.00,NNE,15,5.0,16.0,38,0.00,,,0.00,548.000000,,2013-05-05 17:02:00,
2013-05-05 10:12:00,60.0,34.0,-100.00,NNE,15,5.0,16.0,38,0.00,,,0.00,548.000000,,2013-05-05 17:12:00,
2013-05-05 10:23:00,60.0,34.0,-100.00,NNE,15,5.0,16.0,38,0.00,,,0.00,548.000000,,2013-05-05 17:23:00,
2013-05-05 10:31:00,63.0,34.0,-100.00,NNE,14,5.0,10.0,34,0.00,,,0.00,714.000000,,2013-05-05 17:31:00,
2013-05-05 10:52:00,63.0,34.0,-100.00,NNE,14,5.0,10.0,34,0.00,,,0.00,714.000000,,2013-05-05 17:52:00,
2013-05-05 11:01:00,63.0,34.0,-100.00,NNE,14,5.0,10.0,34,0.00,,,0.00,714.000000,,2013-05-05 18:01:00,
2013-05-05 11:11:00,63.0,34.0,-100.00,NNE,14,5.0,10.0,34,0.00,,,0.00,714.000000,,2013-05-05 18:11:00,
2013-05-05 11:21:00,63.0,34.0,-100.00,NNE,14,5.0,10.0,34,0.00,,,0.00,714.000000,,2013-05-05 18:21:00,
2013-05-05 11:31:00,66.0,34.0,-100.00,NNE,18,5.0,13.0,30,0.00,,,0.00,840.000000,,2013-05-05 18:31:00,
2013-05-05 11:52:00,66.0,34.0,-100.00,NNE,18,5.0,13.0,30,0.00,,,0.00,840.000000,,2013-05-05 18:52:00,
2013-05-05 12:01:00,66.0,34.0,-100.00,NNE,18,5.0,13.0,30,0.00,,,0.00,840.000000,,2013-05-05 19:01:00,
2013-05-05 12:11:00,66.0,34.0,-100.00,NNE,18,5.0,13.0,30,0.00,,,0.00,840.000000,,2013-05-05 19:11:00,
2013-05-05 12:21:00,66.0,34.0,-100.00,NNE,18,5.0,13.0,30,0.00,,,0.00,840.000000,,2013-05-05 19:21:00,
2013-05-05 12:31:00,69.0,35.0,-100.00,NNE,19,5.0,14.0,28,0.00,,,0.00,918.000000,,2013-05-05 19:31:00,
2013-05-05 12:52:00,69.0,35.0,-100.00,NNE,19,5.0,14.0,28,0.00,,,0.00,918.000000,,2013-05-05 19:52:00,
2013-05-05 13:01:00,69.0,35.0,-100.00,NNE,19,5.0,14.0,28,0.00,,,0.00,918.000000,,2013-05-05 20:01:00,
2013-05-05 13:11:00,69.0,35.0,-100.00,NNE,19,5.0,14.0,28,0.00,,,0.00,918.000000,,2013-05-05 20:11:00,
2013-05-05 13:21:00,69.0,35.0,-100.00,NNE,19,5.0,14.0,28,0.00,,,0.00,918.000000,,2013-05-05 20:21:00,
2013-05-05 13:31:00,71.0,33.0,-100.00,NNE,21,6.0,13.0,25,0.00,,,0.00,941.000000,,2013-05-05 20:31:00,
2013-05-05 13:52:00,71.0,33.0,-100.00,NNE,21,6.0,13.0,25,0.00,,,0.00,941.000000,,2013-05-05 20:52:00,
2013-05-05 14:01:00,71.0,33.0,-100.00,NNE,21,6.0,13.0,25,0.00,,,0.00,941.000000,,2013-05-05 21:01:00,
2013-05-05 14:11:00,71.0,33.0,-100.00,NNE,21,6.0,13.0,25,0.00,,,0.00,941.000000,,2013-05-05 21:11:00,
2013-05-05 14:21:00,71.0,33.0,-100.00,NNE,21,6.0,13.0,25,0.00,,,0.00,941.000000,,2013-05-05 21:21:00,
2013-05-05 14:31:00,71.0,32.0,-100.00,NNE,25,5.0,12.0,24,0.00,,,0.00,914.000000,,2013-05-05 21:31:00,
2013-05-05 14:53:00,71.0,32.0,-100.00,NNE,25,5.0,12.0,24,0.00,,,0.00,914.000000,,2013-05-05 21:53:00,
2013-05-05 15:02:00,71.0,32.0,-100.00,NNE,25,5.0,12.0,24,0.00,,,0.00,914.000000,,2013-05-05 22:02:00,
2013-05-05 15:12:00,71.0,32.0,-100.00,NNE,25,5.0,12.0,24,0.00,,,0.00,914.000000,,2013-05-05 22:12:00,
2013-05-05 15:22:00,71.0,32.0,-100.00,NNE,25,5.0,12.0,24,0.00,,,0.00,914.000000,,2013-05-05 22:22:00,
2013-05-05 15:31:00,73.0,33.0,-100.00,NNE,30,5.0,11.0,23,0.00,,,0.00,832.000000,,2013-05-05 22:31:00,
2013-05-05 15:52:00,73.0,33.0,-100.00,NNE,30,5.0,11.0,23,0.00,,,0.00,832.000000,,2013-05-05 22:52:00,
2013-05-05 16:02:00,73.0,33.0,-100.00,NNE,30,5.0,11.0,23,0.00,,,0.00,832.000000,,2013-05-05 23:02:00,
2013-05-05 16:11:00,73.0,33.0,-100.00,NNE,30,5.0,11.0,23,0.00,,,0.00,832.000000,,2013-05-05 23:11:00,
2013-05-05 16:21:00,73.0,33.0,-100.00,NNE,30,5.0,11.0,23,0.00,,,0.00,832.000000,,2013-05-05 23:21:00,
2013-05-05 16:31:00,72.0,32.0,-100.00,NNE,14,6.0,12.0,23,0.00,,,0.00,698.000000,,2013-05-05 23:31:00,
2013-05-05 16:52:00,72.0,32.0,-100.00,NNE,14,6.0,12.0,23,0.00,,,0.00,698.000000,,2013-05-05 23:52:00,
2013-05-05 17:01:00,72.0,32.0,-100.00,NNE,14,6.0,12.0,23,0.00,,,0.00,698.000000,,2013-05-06 00:01:00,
2013-05-05 17:11:00,72.0,32.0,-100.00,NNE,14,6.0,12.0,23,0.00,,,0.00,698.000000,,2013-05-06 00:11:00,
2013-05-05 17:21:00,72.0,32.0,-100.00,NNE,14,6.0,12.0,23,0.00,,,0.00,698.000000,,2013-05-06 00:21:00,
2013-05-05 17:31:00,71.0,32.0,-100.00,NNE,20,5.0,14.0,24,0.00,,,0.00,527.000000,,2013-05-06 00:31:00,
2013-05-05 17:51:00,71.0,32.0,-100.00,NNE,20,5.0,14.0,24,0.00,,,0.00,527.000000,,2013-05-06 00:51:00,
2013-05-05 18:01:00,71.0,32.0,-100.00,NNE,20,5.0,14.0,24,0.00,,,0.00,527.000000,,2013-05-06 01:01:00,
2013-05-05 18:11:00,71.0,32.0,-100.00,NNE,20,5.0,14.0,24,0.00,,,0.00,527.000000,,2013-05-06 01:11:00,
2013-05-05 18:21:00,71.0,32.0,-100.00,NNE,20,5.0,14.0,24,0.00,,,0.00,527.000000,,2013-05-06 01:21:00,
2013-05-05 18:31:00,68.0,30.0,-100.00,NNE,21,4.0,13.0,24,0.00,,,0.00,336.000000,,2013-05-06 01:31:00,
2013-05-05 18:52:00,68.0,30.0,-100.00,NNE,21,4.0,13.0,24,0.00,,,0.00,336.000000,,2013-05-06 01:52:00,
2013-05-05 19:01:00,68.0,30.0,-100.00,NNE,21,4.0,13.0,24,0.00,,,0.00,336.000000,,2013-05-06 02:01:00,
2013-05-05 19:11:00,68.0,30.0,-100.00,NNE,21,4.0,13.0,24,0.00,,,0.00,336.000000,,2013-05-06 02:11:00,
2013-05-05 19:21:00,68.0,30.0,-100.00,NNE,21,4.0,13.0,24,0.00,,,0.00,336.000000,,2013-05-06 02:21:00,
2013-05-05 19:31:00,63.0,30.0,-100.00,North,6,4.0,12.0,29,0.00,,,0.00,107.000000,,2013-05-06 02:31:00,
2013-05-05 19:52:00,63.0,30.0,-100.00,North,6,4.0,12.0,29,0.00,,,0.00,107.000000,,2013-05-06 02:52:00,
2013-05-05 20:01:00,63.0,30.0,-100.00,North,6,4.0,12.0,29,0.00,,,0.00,107.000000,,2013-05-06 03:01:00,
2013-05-05 20:11:00,63.0,30.0,-100.00,North,6,4.0,12.0,29,0.00,,,0.00,107.000000,,2013-05-06 03:11:00,
2013-05-05 20:22:00,63.0,30.0,-100.00,North,6,4.0,12.0,29,0.00,,,0.00,107.000000,,2013-05-06 03:22:00,
2013-05-05 20:31:00,58.0,30.0,-100.00,NNE,20,3.0,9.0,34,0.00,,,-99.99,10.000000,,2013-05-06 03:31:00,
2013-05-05 20:52:00,58.0,30.0,-100.00,NNE,20,3.0,9.0,34,0.00,,,-99.99,10.000000,,2013-05-06 03:52:00,
2013-05-05 21:02:00,58.0,30.0,-100.00,NNE,20,3.0,9.0,34,0.00,,,-99.99,10.000000,,2013-05-06 04:02:00,
2013-05-05 21:12:00,58.0,30.0,-100.00,NNE,20,3.0,9.0,34,0.00,,,-99.99,10.000000,,2013-05-06 04:12:00,
2013-05-05 21:23:00,58.0,30.0,-100.00,NNE,20,3.0,9.0,34,0.00,,,-99.99,10.000000,,2013-05-06 04:23:00,
2013-05-05 21:31:00,53.0,29.0,-100.00,NNW,335,2.0,3.0,40,0.00,,,0.00,0.000000,,2013-05-06 04:31:00,
2013-05-05 21:53:00,53.0,29.0,-100.00,NNW,335,2.0,3.0,40,0.00,,,0.00,0.000000,,2013-05-06 04:53:00,
2013-05-05 22:02:00,53.0,29.0,-100.00,NNW,335,2.0,3.0,40,0.00,,,0.00,0.000000,,2013-05-06 05:02:00,
2013-05-05 22:12:00,53.0,29.0,-100.00,NNW,335,2.0,3.0,40,0.00,,,0.00,0.000000,,2013-05-06 05:12:00,
2013-05-05 22:22:00,53.0,29.0,-100.00,NNW,335,2.0,3.0,40,0.00,,,0.00,0.000000,,2013-05-06 05:22:00,
2013-05-05 22:31:00,55.0,30.0,-100.00,NW,312,2.0,4.0,38,0.00,,,0.00,0.000000,,2013-05-06 05:31:00,
2013-05-05 22:52:00,55.0,30.0,-100.00,NW,312,2.0,4.0,38,0.00,,,0.00,0.000000,,2013-05-06 05:52:00,
2013-05-05 23:02:00,55.0,30.0,-100.00,NW,312,2.0,4.0,38,0.00,,,0.00,0.000000,,2013-05-06 06:02:00,
2013-05-05 23:12:00,55.0,30.0,-100.00,NW,312,2.0,4.0,38,0.00,,,0.00,0.000000,,2013-05-06 06:12:00,
2013-05-05 23:21:00,55.0,30.0,-100.00,NW,312,2.0,4.0,38,0.00,,,0.00,0.000000,,2013-05-06 06:21:00,
2013-05-05 23:31:00,53.0,29.0,-100.00,WNW,300,1.0,6.0,39,0.00,,,0.00,0.000000,,2013-05-06 06:31:00,
2013-05-05 23:52:00,53.0,29.0,-100.00,WNW,300,1.0,6.0,39,0.00,,,0.00,0.000000,,2013-05-06 06:52:00,